Terminal Aerodrome Forecast
Issued by NWS

Home | Current Version | Previous Version | Text Only | Print | Product List | Glossary On
Versions: 1 2 3 4 5 6 7 8 9 10 11 12 13 14 15 16 17 18 19 20 21
000
FTUS42 KMHX 061159
TAFISO
TAF
KISO 061159Z 0612/0712 VRB04KT 4SM -SHRA BKN007
     FM061400 29007KT P6SM VCSH SCT015 BKN025
     FM062000 30007KT P6SM BKN045
     FM070200 24003KT P6SM SCT250
      AMD LTD TO CLD VIS AND WIND=

USA.gov is the U.S. government's official web portal to all federal, state and local government web resources and services.